Wilford Hall USAF Hosp, Texas
Current Conditions -  °F | °C
As of 12:58 AM on Sunday 26 Oct 2014 (Local Time) from KSKF Reporting Station
Clear Clear  
Wind Chill: 66°   Ceiling: Unl
Heat Index: 66°   Visibility: 10mi
Dew Point: 60°   Wind: 2mph
Humidity: 80%   Direction: 170°S
Pressure: 30.08"   Gusts: NA
Location:  29.3853°N, 98.6099°W
Report Text: KSKF 260558Z AUTO 17002KT 10SM CLR 19/16 A3008 RMK AO2 SLP180 T01910155 10270 20191 403090147 58002 $
Loading
Personal Weather Stations






























Interactive Weather Map
Tropical Storm Tracking
New forecast layout! Learn more

10-Day Weather Forecast

Advertisements
Track Severe Weather on mobile